Time;durP1;ratioP1;P1;durP2;ratioP2;P2;SDS_P1;SDS_P2;PMS_P1;PMS_P2;Temp;Humidity;BMP_temperature;BMP_pressure;BME280_temperature;BME280_humidity;BME280_pressure;Samples;Min_cycle;Max_cycle;Signal;HPM_P1;HPM_P2
2023/07/20 00:00:38;;;;;;;;;16.75;14.00;;;;;16.62;69.06;99631.38;5015778;28;8869;-58
2023/07/20 00:03:06;;;;;;;;;16.25;14.75;;;;;16.61;68.93;99640.47;5033405;28;8820;-59
2023/07/20 00:05:33;;;;;;;;;17.50;15.75;;;;;16.60;68.56;99633.41;5033615;28;8967;-59
2023/07/20 00:08:01;;;;;;;;;15.75;15.00;;;;;16.58;68.94;99632.75;5034776;28;8840;-57
2023/07/20 00:10:29;;;;;;;;;17.50;15.50;;;;;16.56;69.09;99644.66;5033495;28;8820;-58
2023/07/20 00:12:57;;;;;;;;;16.50;15.25;;;;;16.52;68.69;99646.84;5015286;28;8818;-57
2023/07/20 00:15:25;;;;;;;;;14.25;12.50;;;;;16.51;68.75;99650.53;5015742;28;9522;-57
2023/07/20 00:17:53;;;;;;;;;18.00;16.00;;;;;16.50;68.93;99648.84;5014989;28;8850;-58
2023/07/20 00:20:20;;;;;;;;;17.00;15.50;;;;;16.49;69.26;99644.47;5026349;28;8824;-56
2023/07/20 00:22:50;;;;;;;;;15.75;13.50;;;;;16.45;69.58;99645.81;5018223;28;8850;-58
2023/07/20 00:25:18;;;;;;;;;15.25;15.25;;;;;16.43;69.21;99642.47;5021988;28;8808;-58
2023/07/20 00:27:46;;;;;;;;;12.50;12.50;;;;;16.41;69.29;99643.63;5029026;28;8830;-58
2023/07/20 00:30:14;;;;;;;;;17.75;16.25;;;;;16.39;69.39;99640.25;5015098;28;8810;-58
2023/07/20 00:32:42;;;;;;;;;17.50;17.00;;;;;16.37;69.72;99644.97;5016320;28;8862;-58
2023/07/20 00:35:10;;;;;;;;;15.00;13.50;;;;;16.35;69.87;99637.03;5032080;28;9485;-58
2023/07/20 00:37:38;;;;;;;;;15.25;15.25;;;;;16.33;69.75;99636.34;5032583;28;8822;-58
2023/07/20 00:40:07;;;;;;;;;16.50;16.00;;;;;16.32;69.83;99642.75;5034377;28;8820;-56
2023/07/20 00:42:34;;;;;;;;;18.25;17.00;;;;;16.32;69.80;99634.69;5034886;28;8970;-57
2023/07/20 00:45:02;;;;;;;;;14.25;14.25;;;;;16.35;68.98;99631.66;5033308;28;8867;-58
2023/07/20 00:47:30;;;;;;;;;17.50;15.00;;;;;16.39;69.34;99635.72;5032110;28;8835;-57
2023/07/20 00:49:58;;;;;;;;;16.50;15.50;;;;;16.41;69.13;99628.34;5014632;28;8806;-58
2023/07/20 00:52:25;;;;;;;;;16.00;16.00;;;;;16.45;69.39;99635.06;5030770;28;8812;-59
2023/07/20 00:54:56;;;;;;;;;19.50;18.50;;;;;16.48;68.78;99637.41;5031455;28;8820;-56
2023/07/20 00:57:25;;;;;;;;;16.25;15.75;;;;;16.49;68.70;99633.72;5016007;28;8857;-59
2023/07/20 00:59:53;;;;;;;;;19.00;18.00;;;;;16.48;69.21;99632.03;5034419;28;8823;-58
2023/07/20 01:02:21;;;;;;;;;16.50;16.50;;;;;16.49;69.39;99632.91;5034509;28;8971;-58
2023/07/20 01:04:48;;;;;;;;;13.50;11.00;;;;;16.48;68.70;99632.03;5032707;28;8840;-58
2023/07/20 01:07:16;;;;;;;;;16.25;15.25;;;;;16.48;69.36;99629.34;5014680;28;8837;-59
2023/07/20 01:09:44;;;;;;;;;14.25;12.75;;;;;16.51;68.95;99631.72;5015516;28;8836;-58
2023/07/20 01:12:12;;;;;;;;;13.00;12.25;;;;;16.54;68.73;99627.84;5015628;28;8829;-58
2023/07/20 01:14:39;;;;;;;;;15.00;13.50;;;;;16.57;68.77;99627.53;5027314;28;8958;-58
2023/07/20 01:17:07;;;;;;;;;16.75;13.50;;;;;16.59;69.15;99626.34;5021165;28;8860;-58
2023/07/20 01:19:35;;;;;;;;;15.00;13.50;;;;;16.63;68.81;99626.84;5034062;28;8816;-58
2023/07/20 01:22:03;;;;;;;;;16.00;16.00;;;;;16.62;68.90;99623.31;5033792;28;8815;-58
2023/07/20 01:24:31;;;;;;;;;13.50;13.00;;;;;16.61;68.62;99635.09;5034705;28;8832;-58
2023/07/20 01:26:58;;;;;;;;;14.75;13.50;;;;;16.59;69.23;99630.88;5034405;28;8881;-58
2023/07/20 01:29:26;;;;;;;;;17.50;15.50;;;;;16.58;68.76;99624.69;5033751;28;8858;-58
2023/07/20 01:31:53;;;;;;;;;6.50;6.00;;;;;16.56;69.23;99623.97;5033941;28;8828;-58
2023/07/20 01:34:21;;;;;;;;;15.00;14.50;;;;;16.56;69.18;99623.16;5033861;28;8832;-58
2023/07/20 01:36:49;;;;;;;;;14.00;13.00;;;;;16.53;69.73;99621.63;5034116;28;8839;-59
2023/07/20 01:39:16;;;;;;;;;9.40;7.80;;;;;16.52;69.58;99621.78;5034033;28;8872;-58
2023/07/20 01:41:44;;;;;;;;;15.25;15.00;;;;;16.47;69.42;99616.94;5033711;28;8924;-57
2023/07/20 01:44:14;;;;;;;;;18.75;15.75;;;;;16.45;69.82;99624.31;5034476;28;8944;-58
2023/07/20 01:46:41;;;;;;;;;9.25;8.50;;;;;16.42;69.34;99624.63;5033497;28;8816;-59
2023/07/20 01:49:09;;;;;;;;;13.00;13.00;;;;;16.43;69.51;99620.97;5033494;28;8863;-58
2023/07/20 01:51:37;;;;;;;;;15.25;13.75;;;;;16.43;69.92;99615.59;5033600;28;8836;-58
2023/07/20 01:54:04;;;;;;;;;13.00;12.50;;;;;16.42;69.28;99619.25;5033734;28;8812;-58
2023/07/20 01:56:32;;;;;;;;;14.00;13.25;;;;;16.40;69.45;99621.28;5033755;28;8912;-59
2023/07/20 01:59:00;;;;;;;;;15.00;13.50;;;;;16.38;70.04;99623.31;5024293;28;8845;-57
2023/07/20 02:01:29;;;;;;;;;13.50;12.25;;;;;16.35;69.56;99607.47;5013793;28;8834;-59
2023/07/20 02:03:58;;;;;;;;;13.00;12.50;;;;;16.33;69.48;99609.47;5017880;28;8820;-58
2023/07/20 02:06:26;;;;;;;;;12.00;10.00;;;;;16.30;70.33;99612.53;5033613;28;8956;-58
2023/07/20 02:08:54;;;;;;;;;7.50;6.75;;;;;16.27;70.00;99614.69;5033250;28;8868;-57
2023/07/20 02:11:21;;;;;;;;;9.50;7.50;;;;;16.22;70.13;99603.59;5032272;28;8867;-56
2023/07/20 02:13:49;;;;;;;;;16.50;16.50;;;;;16.23;69.87;99607.13;5030880;28;9579;-59
2023/07/20 02:16:16;;;;;;;;;14.00;11.75;;;;;16.22;69.95;99600.91;5032934;28;8939;-58
2023/07/20 02:18:44;;;;;;;;;18.50;16.00;;;;;16.22;69.85;99600.09;5033446;28;9474;-58
2023/07/20 02:21:12;;;;;;;;;12.00;9.50;;;;;16.20;70.23;99598.38;5033288;28;8844;-57
2023/07/20 02:23:39;;;;;;;;;12.25;11.00;;;;;16.18;70.36;99599.56;5032645;28;8832;-58
2023/07/20 02:26:07;;;;;;;;;15.00;13.50;;;;;16.14;70.47;99600.91;5032462;28;8816;-58
2023/07/20 02:28:35;;;;;;;;;9.25;9.00;;;;;16.09;70.33;99597.03;5014293;28;8818;-58
2023/07/20 02:31:03;;;;;;;;;13.25;13.25;;;;;16.02;71.15;99599.53;5030424;28;8839;-57
2023/07/20 02:33:31;;;;;;;;;14.75;13.25;;;;;15.95;70.40;99598.53;5032621;28;8836;-57
2023/07/20 02:35:58;;;;;;;;;14.00;13.00;;;;;15.90;70.91;99594.63;5013228;28;9759;-58
2023/07/20 02:38:26;;;;;;;;;12.75;12.00;;;;;15.86;70.92;99602.16;5013001;28;8831;-57
2023/07/20 02:40:54;;;;;;;;;17.75;15.00;;;;;15.87;71.03;99601.19;5014027;28;8810;-57
2023/07/20 02:43:21;;;;;;;;;18.25;15.00;;;;;15.87;70.86;99600.34;5013973;28;8858;-58
2023/07/20 02:45:49;;;;;;;;;15.00;14.00;;;;;15.89;71.33;99599.16;5030136;28;8812;-58
2023/07/20 02:48:18;;;;;;;;;13.00;12.75;;;;;15.93;70.74;99597.81;5032994;28;8824;-58
2023/07/20 02:50:46;;;;;;;;;15.50;12.75;;;;;15.96;70.29;99597.50;5032355;28;8831;-58
2023/07/20 02:53:14;;;;;;;;;13.25;12.75;;;;;15.98;70.77;99600.00;5032934;28;8820;-58
2023/07/20 02:55:41;;;;;;;;;17.00;15.50;;;;;15.99;70.80;99601.72;5019628;28;8842;-57
2023/07/20 02:58:09;;;;;;;;;17.00;15.50;;;;;15.99;70.58;99601.72;5012553;28;8864;-58
2023/07/20 03:00:37;;;;;;;;;12.00;11.50;;;;;16.02;70.08;99604.06;5013846;28;8810;-57
2023/07/20 03:03:09;;;;;;;;;16.25;14.25;;;;;16.03;70.65;99601.22;5013348;28;8841;-59
2023/07/20 03:05:39;;;;;;;;;15.75;12.50;;;;;16.08;70.20;99604.22;5013648;28;9484;-58
2023/07/20 03:08:06;;;;;;;;;13.75;11.00;;;;;16.14;70.31;99610.81;5015039;28;8862;-58
2023/07/20 03:10:34;;;;;;;;;12.25;10.00;;;;;16.18;70.63;99608.44;5017079;28;8945;-58
2023/07/20 03:13:02;;;;;;;;;13.25;12.75;;;;;16.22;70.59;99618.88;5016375;28;8829;-57
2023/07/20 03:15:31;;;;;;;;;13.00;12.50;;;;;16.26;70.00;99613.84;5016141;28;8810;-56
2023/07/20 03:17:59;;;;;;;;;6.75;6.50;;;;;16.28;70.10;99619.06;5016261;28;8827;-56
2023/07/20 03:20:26;;;;;;;;;11.50;10.00;;;;;16.26;70.23;99621.91;5025911;28;8824;-56
2023/07/20 03:22:54;;;;;;;;;12.50;12.50;;;;;16.19;70.26;99630.81;5035777;28;8804;-59
2023/07/20 03:25:22;;;;;;;;;12.25;12.00;;;;;16.10;70.65;99628.25;5035802;28;8854;-59
2023/07/20 03:27:53;;;;;;;;;11.25;11.25;;;;;16.04;70.72;99628.91;5036013;28;8851;-59
2023/07/20 03:30:20;;;;;;;;;8.00;6.75;;;;;15.99;71.64;99639.31;5035747;28;8816;-58
2023/07/20 03:32:48;;;;;;;;;9.75;9.75;;;;;15.95;71.20;99635.28;5036022;28;9568;-59
2023/07/20 03:35:16;;;;;;;;;9.00;7.00;;;;;15.92;71.68;99632.91;5035649;28;8836;-57
2023/07/20 03:37:44;;;;;;;;;9.25;9.00;;;;;15.89;70.97;99635.91;5035243;28;8840;-56
2023/07/20 03:40:12;;;;;;;;;11.75;9.50;;;;;15.85;71.82;99632.72;5036057;28;8836;-57
2023/07/20 03:42:39;;;;;;;;;8.25;8.00;;;;;15.82;71.49;99640.25;5036535;28;8843;-58
2023/07/20 03:45:07;;;;;;;;;7.50;7.50;;;;;15.80;71.00;99642.25;5035469;28;8820;-59
2023/07/20 03:47:35;;;;;;;;;9.00;8.00;;;;;15.81;71.72;99641.25;5035549;28;8848;-57
2023/07/20 03:50:03;;;;;;;;;6.75;6.75;;;;;15.81;71.52;99638.56;5035716;28;8982;-59
2023/07/20 03:52:31;;;;;;;;;10.50;9.25;;;;;15.81;71.78;99643.94;5035471;28;9490;-57
2023/07/20 03:54:59;;;;;;;;;9.25;9.25;;;;;15.81;71.79;99646.63;5035493;28;8840;-56
2023/07/20 03:57:26;;;;;;;;;10.25;8.50;;;;;15.81;72.05;99639.44;5035036;28;8824;-58
2023/07/20 03:59:55;;;;;;;;;9.25;9.00;;;;;15.81;71.37;99633.19;5035024;28;8986;-59
2023/07/20 04:02:22;;;;;;;;;9.00;7.50;;;;;15.80;71.49;99632.38;5035110;28;8894;-56
2023/07/20 04:04:50;;;;;;;;;9.00;6.75;;;;;15.80;71.74;99634.22;5035317;28;8820;-58
2023/07/20 04:07:18;;;;;;;;;4.50;4.00;;;;;15.84;71.01;99635.59;5020841;28;8895;-58
2023/07/20 04:09:45;;;;;;;;;9.00;8.00;;;;;15.84;71.50;99638.28;5016228;28;8838;-58
2023/07/20 04:12:13;;;;;;;;;8.50;8.00;;;;;15.84;71.27;99638.28;5015320;28;8851;-58
2023/07/20 04:14:42;;;;;;;;;8.00;7.00;;;;;15.83;71.22;99648.16;5015315;28;8822;-59
2023/07/20 04:17:13;;;;;;;;;9.00;7.00;;;;;15.82;71.56;99651.00;5015700;28;8838;-59
2023/07/20 04:19:40;;;;;;;;;11.00;10.00;;;;;15.83;71.67;99650.00;5014341;28;8838;-58
2023/07/20 04:22:08;;;;;;;;;6.50;6.00;;;;;15.81;71.46;99652.00;5014333;28;8961;-58
2023/07/20 04:24:35;;;;;;;;;9.25;8.00;;;;;15.80;71.19;99653.00;5014976;28;8802;-58
2023/07/20 04:27:03;;;;;;;;;13.75;11.00;;;;;15.80;71.74;99642.25;5015120;28;8842;-58
2023/07/20 04:29:31;;;;;;;;;17.50;16.25;;;;;15.78;71.68;99647.78;5015718;28;8838;-58
2023/07/20 04:31:58;;;;;;;;;9.00;8.00;;;;;15.79;71.70;99657.53;5015069;28;8926;-59
2023/07/20 04:34:26;;;;;;;;;15.25;13.00;;;;;15.84;71.11;99659.75;5033546;28;8836;-59
2023/07/20 04:36:54;;;;;;;;;14.50;11.25;;;;;15.87;71.72;99662.97;5033513;28;8808;-59
2023/07/20 04:39:21;;;;;;;;;12.25;11.00;;;;;15.95;71.18;99659.44;5032493;28;8862;-57
2023/07/20 04:41:58;;;;;;;;;12.25;12.00;;;;;16.02;71.16;99660.47;5025759;28;8829;-58
2023/07/20 04:44:29;;;;;;;;;13.50;12.00;;;;;16.08;70.51;99674.09;5015128;28;8826;-58
2023/07/20 04:46:56;;;;;;;;;13.50;11.00;;;;;16.14;70.83;99664.56;5014567;28;8932;-57
2023/07/20 04:49:24;;;;;;;;;9.25;9.00;;;;;16.16;70.58;99670.59;5017349;28;8832;-58
2023/07/20 04:51:52;;;;;;;;;12.75;12.00;;;;;16.20;70.39;99659.34;5033304;28;8852;-58
2023/07/20 04:54:20;;;;;;;;;16.25;14.25;;;;;16.25;70.91;99660.53;5031596;28;8806;-58
2023/07/20 04:56:47;;;;;;;;;13.50;12.75;;;;;16.29;70.18;99656.53;5014051;28;8818;-57
2023/07/20 04:59:18;;;;;;;;;15.25;13.00;;;;;16.33;70.23;99657.84;5015899;28;8932;-58
2023/07/20 05:01:45;;;;;;;;;15.50;14.00;;;;;16.32;70.52;99660.72;5033009;28;8844;-58
2023/07/20 05:04:13;;;;;;;;;6.50;6.25;;;;;16.27;70.51;99655.81;5031971;28;8824;-58
2023/07/20 05:06:45;;;;;;;;;14.50;12.00;;;;;16.22;71.04;99653.81;5014936;28;8834;-59
2023/07/20 05:09:13;;;;;;;;;17.50;15.25;;;;;16.17;70.90;99656.16;5015498;28;8938;-58
2023/07/20 05:11:40;;;;;;;;;24.50;21.50;;;;;16.10;71.76;99665.88;5019578;28;8862;-59
2023/07/20 05:14:08;;;;;;;;;18.00;16.00;;;;;16.10;71.29;99668.56;5033706;28;8820;-59
2023/07/20 05:16:36;;;;;;;;;21.25;16.00;;;;;16.13;72.07;99661.00;5033969;28;8823;-56
2023/07/20 05:19:04;;;;;;;;;11.75;9.50;;;;;16.17;71.19;99666.91;5031826;28;8920;-59
2023/07/20 05:21:32;;;;;;;;;13.50;13.50;;;;;16.17;71.20;99667.75;5022186;28;9474;-59
2023/07/20 05:23:59;;;;;;;;;18.75;14.25;;;;;16.18;71.24;99672.94;5033306;28;8840;-58
2023/07/20 05:26:27;;;;;;;;;19.00;16.25;;;;;16.18;71.02;99670.25;5033709;28;8819;-59
2023/07/20 05:28:55;;;;;;;;;6.25;4.50;;;;;16.21;71.93;99674.47;5033290;28;8832;-59
2023/07/20 05:31:22;;;;;;;;;13.00;12.50;;;;;16.22;71.70;99675.31;5033558;28;8874;-58
2023/07/20 05:33:50;;;;;;;;;14.50;12.50;;;;;16.26;71.62;99675.66;5033222;28;8840;-59
2023/07/20 05:36:18;;;;;;;;;20.25;17.75;;;;;16.32;71.06;99671.47;5033290;28;8816;-58
2023/07/20 05:38:45;;;;;;;;;12.50;12.00;;;;;16.45;71.54;99674.53;5033299;28;8848;-57
2023/07/20 05:41:13;;;;;;;;;17.50;16.00;;;;;16.55;71.08;99675.25;5033047;28;8868;-59
2023/07/20 05:43:42;;;;;;;;;16.50;16.00;;;;;16.64;70.97;99685.00;5034211;28;8867;-57
2023/07/20 05:46:09;;;;;;;;;17.00;15.00;;;;;16.69;70.44;99686.19;5032920;28;8847;-59
2023/07/20 05:48:37;;;;;;;;;18.50;16.00;;;;;16.72;70.66;99691.22;5033082;28;8964;-57
2023/07/20 05:51:05;;;;;;;;;18.50;15.25;;;;;16.78;71.12;99689.72;5033213;28;8847;-59
2023/07/20 05:53:33;;;;;;;;;12.50;9.00;;;;;16.82;69.98;99693.75;5033571;28;9572;-58
2023/07/20 05:56:00;;;;;;;;;15.00;13.00;;;;;16.88;70.70;99696.63;5033339;28;8855;-57
2023/07/20 05:58:28;;;;;;;;;9.20;8.80;;;;;16.98;69.92;99696.44;5033165;28;8851;-58
2023/07/20 06:00:55;;;;;;;;;13.50;12.50;;;;;17.06;70.05;99693.72;5032995;28;9544;-58
2023/07/20 06:03:23;;;;;;;;;14.50;14.00;;;;;17.14;70.13;99707.19;5032779;28;8855;-58
2023/07/20 06:05:51;;;;;;;;;17.60;15.80;;;;;17.18;69.71;99698.63;5014245;28;8818;-58
2023/07/20 06:08:19;;;;;;;;;15.20;13.00;;;;;17.23;70.08;99712.41;5013271;28;8854;-58
2023/07/20 06:10:47;;;;;;;;;15.00;13.80;;;;;17.23;69.77;99706.19;5014105;28;8856;-58
2023/07/20 06:13:14;;;;;;;;;15.60;15.00;;;;;17.17;69.85;99712.25;5021586;28;8816;-56
2023/07/20 06:15:43;;;;;;;;;15.20;12.80;;;;;17.13;70.51;99718.97;5031980;28;8870;-55
2023/07/20 06:18:11;;;;;;;;;12.75;12.75;;;;;17.15;70.63;99722.34;5032450;28;8881;-58
2023/07/20 06:20:38;;;;;;;;;14.50;12.50;;;;;17.20;70.29;99718.13;5022967;28;8860;-59
2023/07/20 06:23:06;;;;;;;;;14.60;14.60;;;;;17.26;69.62;99728.22;5017220;28;8938;-57
2023/07/20 06:25:34;;;;;;;;;16.00;13.80;;;;;17.31;70.18;99725.84;5012941;28;9524;-59
2023/07/20 06:28:04;;;;;;;;;20.20;15.80;;;;;17.35;70.18;99724.50;5012390;28;8838;-58
2023/07/20 06:30:32;;;;;;;;;13.00;11.00;;;;;17.40;69.86;99729.41;5013489;28;8830;-58
2023/07/20 06:33:00;;;;;;;;;14.60;13.00;;;;;17.48;69.86;99730.22;5011447;28;8848;-56
2023/07/20 06:35:28;;;;;;;;;9.60;8.60;;;;;17.56;69.81;99729.38;5012182;28;8826;-57
2023/07/20 06:37:55;;;;;;;;;12.80;12.20;;;;;17.65;69.34;99733.72;5025243;28;8828;-58
2023/07/20 06:40:23;;;;;;;;;17.60;14.20;;;;;17.72;68.97;99735.59;5030206;28;8863;-59
2023/07/20 06:42:54;;;;;;;;;16.80;14.40;;;;;17.81;69.44;99729.16;5031972;28;9462;-59
2023/07/20 06:45:24;;;;;;;;;16.00;15.00;;;;;17.89;69.18;99731.81;5012311;28;8838;-59
2023/07/20 06:47:52;;;;;;;;;15.40;12.60;;;;;17.99;69.29;99727.06;5025640;28;8828;-58
2023/07/20 06:50:20;;;;;;;;;17.40;15.40;;;;;18.10;68.83;99723.16;5031488;28;8842;-59
2023/07/20 06:52:54;;;;;;;;;15.40;13.40;;;;;18.18;68.90;99731.19;5031271;28;8816;-57
2023/07/20 06:55:25;;;;;;;;;11.60;10.40;;;;;18.19;68.90;99722.94;5024514;28;8826;-58
2023/07/20 06:57:52;;;;;;;;;18.00;14.80;;;;;18.19;69.30;99722.09;5024609;28;8964;-59
2023/07/20 07:00:26;;;;;;;;;12.20;11.20;;;;;18.16;69.02;99728.69;5028222;28;8840;-58
2023/07/20 07:02:54;;;;;;;;;9.20;9.20;;;;;18.14;69.14;99727.19;5030052;28;8840;-57
2023/07/20 07:05:22;;;;;;;;;11.80;11.20;;;;;18.12;69.12;99729.19;5031572;28;8804;-59
2023/07/20 07:07:50;;;;;;;;;12.40;11.60;;;;;18.15;69.29;99727.00;5018970;28;8944;-59
2023/07/20 07:10:18;;;;;;;;;14.20;13.00;;;;;18.22;69.21;99733.38;5013852;28;9471;-59
2023/07/20 07:12:46;;;;;;;;;17.20;15.80;;;;;18.25;69.35;99738.44;5023590;28;8950;-57
2023/07/20 07:15:13;;;;;;;;;13.40;12.80;;;;;18.20;69.47;99735.41;5019258;28;8822;-59
2023/07/20 07:17:43;;;;;;;;;15.00;13.00;;;;;18.17;69.51;99735.75;5031221;28;8828;-59
2023/07/20 07:20:11;;;;;;;;;12.80;12.80;;;;;18.15;69.67;99736.94;5031918;28;8824;-59
2023/07/20 07:22:46;;;;;;;;;14.20;12.80;;;;;18.13;69.76;99744.38;5031321;28;8847;-59
2023/07/20 07:25:15;;;;;;;;;18.00;16.00;;;;;18.14;69.09;99741.50;5031773;28;8952;-57
2023/07/20 07:27:49;;;;;;;;;15.00;13.00;;;;;18.17;69.47;99749.25;5031256;28;8840;-58
2023/07/20 07:30:17;;;;;;;;;18.00;16.00;;;;;18.23;69.49;99740.44;5031353;28;8843;-57
2023/07/20 07:32:45;;;;;;;;;15.00;13.80;;;;;18.30;69.53;99746.84;5031238;28;8850;-59
2023/07/20 07:35:13;;;;;;;;;17.80;14.60;;;;;18.48;68.84;99751.97;5031053;28;8974;-59
2023/07/20 07:37:40;;;;;;;;;16.80;14.20;;;;;18.65;68.14;99756.25;5030811;28;9010;-59
2023/07/20 07:40:28;;;;;;;;;18.80;17.20;;;;;18.71;68.27;99756.41;5031272;28;8837;-59
2023/07/20 07:42:57;;;;;;;;;11.60;10.00;;;;;18.64;68.38;99760.84;5032367;28;8844;-59
2023/07/20 07:45:24;;;;;;;;;16.00;12.40;;;;;18.60;68.81;99764.88;5031184;28;8978;-58
2023/07/20 07:47:53;;;;;;;;;13.40;10.80;;;;;18.73;68.36;99758.94;5016990;28;8833;-59
2023/07/20 07:50:21;;;;;;;;;8.60;8.20;;;;;18.92;67.76;99759.31;5025610;28;8828;-58
2023/07/20 07:52:49;;;;;;;;;10.00;9.20;;;;;19.09;68.00;99760.88;5029638;28;8959;-59
2023/07/20 07:55:17;;;;;;;;;14.20;12.60;;;;;19.27;67.31;99764.13;5031051;28;8812;-59
2023/07/20 07:57:47;;;;;;;;;10.00;9.60;;;;;19.41;67.04;99766.03;5033663;28;8850;-59
2023/07/20 08:00:15;;;;;;;;;9.60;9.40;;;;;19.60;66.22;99770.94;5019845;28;8865;-59
2023/07/20 08:02:43;;;;;;;;;11.80;11.40;;;;;19.80;66.18;99760.41;5014693;28;8830;-59
2023/07/20 08:05:11;;;;;;;;;11.60;11.00;;;;;19.86;65.80;99762.38;5015831;28;8818;-60
2023/07/20 08:07:39;;;;;;;;;11.20;8.80;;;;;19.92;66.17;99767.88;5014525;28;8884;-59
2023/07/20 08:10:07;;;;;;;;;11.20;9.20;;;;;20.00;66.02;99767.78;5020038;28;8917;-58
2023/07/20 08:12:35;;;;;;;;;11.40;9.80;;;;;20.20;65.31;99771.66;5014710;28;8833;-59
2023/07/20 08:15:02;;;;;;;;;13.00;12.20;;;;;20.39;64.79;99762.94;5024340;28;8820;-59
2023/07/20 08:17:31;;;;;;;;;8.20;7.00;;;;;20.37;65.36;99759.59;5020026;28;8830;-59
2023/07/20 08:20:00;;;;;;;;;8.60;7.80;;;;;20.24;65.73;99764.84;5025692;28;8850;-59
2023/07/20 08:22:27;;;;;;;;;7.80;7.60;;;;;20.05;65.77;99775.38;5033417;28;8897;-59
2023/07/20 08:24:55;;;;;;;;;6.60;6.20;;;;;19.87;66.27;99778.41;5033854;28;8862;-58
2023/07/20 08:27:23;;;;;;;;;6.60;6.60;;;;;19.70;66.99;99776.03;5032868;28;9489;-58
2023/07/20 08:29:51;;;;;;;;;5.80;5.80;;;;;19.54;67.39;99779.75;5016410;28;8861;-58
2023/07/20 08:32:20;;;;;;;;;8.00;7.20;;;;;19.44;67.58;99779.19;5031329;28;8851;-58
2023/07/20 08:34:48;;;;;;;;;7.00;7.00;;;;;19.47;67.51;99778.81;5032385;28;8862;-59
2023/07/20 08:37:16;;;;;;;;;9.40;8.00;;;;;19.68;67.41;99781.66;5033211;28;8812;-56
2023/07/20 08:39:43;;;;;;;;;10.20;9.60;;;;;19.94;66.00;99782.03;5030943;28;8874;-59
2023/07/20 08:42:11;;;;;;;;;7.80;7.40;;;;;20.12;65.63;99787.97;5035225;28;8855;-59
2023/07/20 08:44:39;;;;;;;;;11.20;10.20;;;;;20.10;66.11;99789.19;5033800;28;9568;-59
2023/07/20 08:47:07;;;;;;;;;11.80;10.00;;;;;19.95;66.60;99785.59;5027741;28;8876;-59
2023/07/20 08:49:35;;;;;;;;;14.20;13.00;;;;;19.76;66.47;99795.09;5030202;28;8862;-58
2023/07/20 08:52:02;;;;;;;;;9.60;7.60;;;;;19.58;66.97;99797.25;5031720;28;9501;-59
2023/07/20 08:54:32;;;;;;;;;9.20;7.60;;;;;19.42;67.24;99793.88;5022733;28;8915;-58
2023/07/20 08:57:00;;;;;;;;;6.80;5.20;;;;;19.29;67.18;99799.03;5012476;28;9543;-59
2023/07/20 08:59:30;;;;;;;;;6.40;6.00;;;;;19.19;68.27;99810.09;5029032;28;8954;-58
2023/07/20 09:01:57;;;;;;;;;3.20;3.00;;;;;19.13;68.34;99804.53;5031852;28;8856;-59
2023/07/20 09:04:25;;;;;;;;;5.00;4.00;;;;;19.07;68.48;99808.81;5029816;28;8838;-58
2023/07/20 09:06:53;;;;;;;;;5.40;3.80;;;;;19.03;68.73;99807.47;5013471;28;8834;-59
2023/07/20 09:09:21;;;;;;;;;4.60;4.60;;;;;18.98;68.19;99804.44;5026065;28;8866;-58
2023/07/20 09:11:49;;;;;;;;;6.40;6.40;;;;;19.04;68.08;99806.44;5031402;28;8820;-58
2023/07/20 09:14:17;;;;;;;;;7.40;5.40;;;;;19.29;67.94;99799.91;5031490;28;9855;-59
2023/07/20 09:16:45;;;;;;;;;7.00;7.00;;;;;19.59;66.72;99796.28;5028683;28;8817;-59
2023/07/20 09:19:14;;;;;;;;;2.60;1.40;;;;;19.91;65.95;99795.94;5032174;28;8836;-59
2023/07/20 09:21:42;;;;;;;;;9.60;9.00;;;;;20.18;65.09;99791.78;5033339;28;8844;-58
2023/07/20 09:24:10;;;;;;;;;11.40;10.20;;;;;20.24;65.26;99791.88;5032665;28;8836;-58
2023/07/20 09:26:38;;;;;;;;;9.80;9.80;;;;;20.25;65.25;99798.13;5033241;28;8828;-59
2023/07/20 09:29:06;;;;;;;;;12.20;10.40;;;;;20.24;64.70;99802.69;5032763;28;8823;-59
2023/07/20 09:31:35;;;;;;;;;10.00;8.40;;;;;20.17;65.19;99799.06;5032859;28;8812;-59
2023/07/20 09:34:06;;;;;;;;;16.40;14.80;;;;;20.20;65.16;99804.13;5031908;28;9861;-59
2023/07/20 09:36:34;;;;;;;;;14.60;14.00;;;;;20.25;65.04;99798.97;5031880;28;8948;-59
2023/07/20 09:39:05;;;;;;;;;16.60;13.80;;;;;20.30;65.43;99793.00;5032234;28;8819;-59
2023/07/20 09:41:33;;;;;;;;;13.80;13.00;;;;;20.59;64.54;99791.09;5032884;28;8843;-59
2023/07/20 09:44:04;;;;;;;;;9.20;8.80;;;;;20.93;63.72;99789.47;5033470;28;8792;-59
2023/07/20 09:46:52;;;;;;;;;15.00;14.00;;;;;21.26;62.95;99773.56;5032858;28;9671;-60
2023/07/20 09:49:22;;;;;;;;;8.00;8.00;;;;;21.50;61.99;99778.56;5030878;28;8812;-60
2023/07/20 09:51:53;;;;;;;;;11.60;10.60;;;;;21.73;61.76;99779.19;5031942;28;8818;-59
2023/07/20 09:54:21;;;;;;;;;5.00;5.00;;;;;21.94;61.24;99773.72;5028461;28;8813;-59
2023/07/20 09:56:49;;;;;;;;;6.20;5.00;;;;;22.29;60.43;99783.53;5032326;28;8825;-59
2023/07/20 09:59:17;;;;;;;;;4.00;4.00;;;;;;;;5030759;28;8825;-59
2023/07/20 10:01:45;;;;;;;;;4.40;4.40;;;;;23.02;59.02;99780.94;5012595;28;8855;-60
2023/07/20 10:04:13;;;;;;;;;5.20;4.80;;;;;23.32;58.36;99782.28;5012561;28;8835;-60
2023/07/20 10:06:41;;;;;;;;;6.00;5.20;;;;;23.51;58.10;99776.88;5013655;28;8835;-59
2023/07/20 10:09:10;;;;;;;;;5.00;5.00;;;;;23.85;57.38;99773.09;5012802;28;8855;-59
2023/07/20 10:11:38;;;;;;;;;5.00;4.40;;;;;24.09;56.96;99777.91;5031115;28;8953;-60
2023/07/20 10:14:08;;;;;;;;;5.20;4.60;;;;;24.27;56.95;99776.19;5032045;28;8829;-58
2023/07/20 10:16:36;;;;;;;;;8.00;5.20;;;;;24.38;57.03;99791.03;5030647;28;8825;-59
2023/07/20 10:19:04;;;;;;;;;4.00;4.00;;;;;24.62;56.86;99784.88;5030357;28;8813;-60
2023/07/20 10:21:44;;;;;;;;;2.00;2.00;;;;;25.15;55.60;99770.78;5022173;28;8824;-59
2023/07/20 10:24:17;;;;;;;;;2.00;2.00;;;;;24.94;55.74;99782.03;5012645;28;8831;-60
2023/07/20 10:26:45;;;;;;;;;1.00;1.00;;;;;24.62;56.96;99779.44;5012346;28;8819;-60
2023/07/20 10:29:13;;;;;;;;;2.00;2.00;;;;;25.09;56.38;99776.28;5011553;28;8839;-60
2023/07/20 10:31:41;;;;;;;;;2.00;2.00;;;;;25.86;54.12;99773.00;5030822;28;8831;-60
2023/07/20 10:34:09;;;;;;;;;3.00;2.00;;;;;26.39;52.83;99762.38;5029008;28;8874;-59
2023/07/20 10:36:38;;;;;;;;;2.60;2.00;;;;;25.95;54.08;99768.94;5011881;28;8808;-60
2023/07/20 10:39:05;;;;;;;;;2.80;2.20;;;;;25.24;55.68;99765.97;5012395;28;8843;-60
2023/07/20 10:41:34;;;;;;;;;1.80;1.80;;;;;24.55;57.33;99767.72;5013323;28;8826;-59
2023/07/20 10:44:03;;;;;;;;;1.00;1.00;;;;;24.14;57.76;99775.38;5013805;28;8839;-59
2023/07/20 10:46:32;;;;;;;;;1.20;1.00;;;;;24.66;57.48;99765.16;5011679;28;8922;-60
2023/07/20 10:49:00;;;;;;;;;2.00;1.00;;;;;25.60;54.74;99756.00;5011237;28;8843;-60
2023/07/20 10:51:27;;;;;;;;;1.00;1.00;;;;;26.63;52.98;99748.66;5013897;28;8974;-60
2023/07/20 10:53:56;;;;;;;;;1.20;1.20;;;;;27.42;50.96;99745.66;5021671;28;8829;-58
2023/07/20 10:56:25;;;;;;;;;1.20;1.20;;;;;27.97;50.62;99747.03;5012116;28;8826;-59
2023/07/20 10:58:53;;;;;;;;;1.00;1.00;;;;;28.17;50.21;99753.84;5012332;28;8846;-60
2023/07/20 11:01:21;;;;;;;;;1.00;1.00;;;;;27.60;51.63;99760.09;5027385;28;8856;-59
2023/07/20 11:03:50;;;;;;;;;1.40;1.40;;;;;27.85;51.25;99759.91;5031433;28;8836;-60
2023/07/20 11:06:24;;;;;;;;;1.00;1.00;;;;;28.15;49.93;99755.16;5029678;28;8823;-60
2023/07/20 11:08:52;;;;;;;;;1.00;1.00;;;;;27.75;51.15;99755.03;5030208;28;9006;-59
2023/07/20 11:11:22;;;;;;;;;1.60;1.00;;;;;27.07;52.59;99756.47;5029796;28;8832;-60
2023/07/20 11:13:50;;;;;;;;;1.80;1.80;;;;;26.58;53.34;99756.69;5031470;28;8851;-60
2023/07/20 11:16:18;;;;;;;;;1.00;1.00;;;;;26.02;53.84;99761.53;5019049;28;8957;-60
2023/07/20 11:18:46;;;;;;;;;1.80;1.80;;;;;25.84;55.08;99761.47;5030404;28;8832;-60
2023/07/20 11:21:15;;;;;;;;;1.00;1.00;;;;;26.13;53.81;99752.59;5031409;28;8843;-58
2023/07/20 11:23:43;;;;;;;;;1.20;1.00;;;;;26.20;53.51;99750.59;5031317;28;8873;-59
2023/07/20 11:26:12;;;;;;;;;1.00;1.00;;;;;26.90;52.28;99747.25;5030698;28;8929;-60
2023/07/20 11:28:42;;;;;;;;;2.00;2.00;;;;;27.88;50.41;99743.00;5032427;28;8858;-60
2023/07/20 11:31:10;;;;;;;;;1.00;1.00;;;;;28.58;48.83;99730.91;5034305;28;8891;-60
2023/07/20 11:33:38;;;;;;;;;1.00;1.00;;;;;29.13;47.89;99732.84;5034355;28;8982;-60
2023/07/20 11:36:06;;;;;;;;;1.00;1.00;;;;;28.81;48.43;99737.16;5034705;28;8840;-58